createdAt,value
2022-08-17T00:01:11.426Z,6.80
2022-08-17T00:03:46.414Z,8.00
2022-08-17T00:06:22.268Z,6.20
2022-08-17T00:08:57.314Z,8.00
2022-08-17T00:11:32.681Z,8.00
2022-08-17T00:14:06.755Z,7.00
2022-08-17T00:16:55.376Z,8.00
2022-08-17T00:19:33.360Z,8.00
2022-08-17T00:22:33.695Z,9.00
2022-08-17T00:25:02.437Z,6.60
2022-08-17T00:27:40.938Z,7.00
2022-08-17T00:30:15.401Z,10.00
2022-08-17T00:33:15.526Z,7.00
2022-08-17T00:35:45.193Z,9.00
2022-08-17T00:38:39.579Z,9.00
2022-08-17T00:41:14.846Z,7.00
2022-08-17T00:43:50.915Z,7.00
2022-08-17T00:46:25.847Z,7.50
2022-08-17T00:48:59.921Z,9.20
2022-08-17T00:51:34.953Z,7.25
2022-08-17T00:54:09.064Z,7.00
2022-08-17T00:56:43.161Z,7.00
2022-08-17T00:59:17.298Z,6.60
2022-08-17T01:01:53.136Z,9.60
2022-08-17T01:04:27.267Z,8.00
2022-08-17T01:07:01.598Z,9.00
2022-08-17T01:09:36.815Z,8.00
2022-08-17T01:12:11.909Z,9.25
2022-08-17T01:14:45.980Z,8.00
2022-08-17T01:17:20.216Z,7.20
2022-08-17T01:19:55.440Z,8.80
2022-08-17T01:22:30.468Z,11.00
2022-08-17T01:25:05.542Z,9.00
2022-08-17T01:27:40.625Z,7.00
2022-08-17T01:30:57.253Z,8.00
2022-08-17T01:33:14.210Z,9.00
2022-08-17T01:35:48.673Z,9.00
2022-08-17T01:38:27.317Z,8.00
2022-08-17T01:41:02.612Z,8.50
2022-08-17T01:43:36.629Z,8.00
2022-08-17T01:46:11.967Z,7.80
2022-08-17T01:48:48.257Z,8.00
2022-08-17T01:51:22.336Z,7.00
2022-08-17T01:53:56.447Z,7.80
2022-08-17T01:56:31.008Z,7.40
2022-08-17T01:59:05.093Z,8.60
2022-08-17T02:01:39.701Z,7.40
2022-08-17T02:04:17.289Z,7.60
2022-08-17T02:06:54.138Z,6.80
2022-08-17T02:09:29.756Z,8.25
2022-08-17T02:12:38.154Z,8.40
2022-08-17T02:15:00.101Z,10.00
2022-08-17T02:17:36.031Z,7.00
2022-08-17T02:20:11.167Z,9.00
2022-08-17T02:22:46.508Z,7.00
2022-08-17T02:25:21.886Z,8.00
2022-08-17T02:27:56.387Z,8.25
2022-08-17T02:30:59.427Z,8.00
2022-08-17T02:33:25.393Z,9.00
2022-08-17T02:36:17.461Z,7.75
2022-08-17T02:38:51.676Z,10.20
2022-08-17T02:41:25.763Z,7.40
2022-08-17T02:44:01.120Z,7.00
2022-08-17T02:46:36.019Z,9.00
2022-08-17T02:49:10.124Z,6.00
2022-08-17T02:51:45.289Z,10.00
2022-08-17T02:54:41.123Z,8.80
2022-08-17T02:57:14.119Z,9.50
2022-08-17T02:59:49.155Z,9.00
2022-08-17T03:02:25.089Z,6.00
2022-08-17T03:04:59.107Z,9.00
2022-08-17T03:07:34.462Z,7.00
2022-08-17T03:10:08.528Z,9.50
2022-08-17T03:32:02.982Z,9.00
2022-08-17T03:39:34.187Z,7.60
2022-08-17T03:42:09.997Z,9.00
2022-08-17T03:45:05.101Z,12.60
2022-08-17T03:47:58.070Z,10.00
2022-08-17T07:05:38.671Z,21.40
2022-08-17T07:14:04.880Z,17.40
2022-08-17T07:16:43.493Z,17.00
2022-08-17T07:19:19.315Z,12.00
2022-08-17T07:21:57.346Z,20.00
2022-08-17T07:24:34.383Z,15.00
2022-08-17T07:32:28.907Z,15.80
2022-08-17T07:35:15.723Z,16.25
2022-08-17T07:38:00.130Z,16.50
2022-08-17T07:40:34.986Z,14.00
2022-08-17T07:43:21.877Z,11.75
2022-08-17T07:53:14.248Z,11.25
2022-08-17T08:02:56.464Z,16.00
2022-08-17T08:10:51.459Z,20.00
2022-08-17T08:13:29.481Z,13.80
2022-08-17T08:21:43.038Z,16.50
2022-08-17T08:36:14.338Z,15.40
2022-08-17T08:39:10.148Z,13.00
2022-08-17T09:00:52.333Z,21.75
2022-08-17T09:03:43.836Z,14.00
2022-08-17T09:06:33.562Z,13.60
2022-08-17T09:22:49.253Z,16.00
2022-08-17T09:25:23.705Z,10.75
2022-08-17T09:28:00.940Z,10.50
2022-08-17T09:30:38.673Z,14.75
2022-08-17T09:33:16.929Z,12.00
2022-08-17T09:35:53.449Z,12.40
2022-08-17T09:38:32.498Z,13.00
2022-08-17T09:41:07.467Z,14.00
2022-08-17T09:43:49.339Z,9.00
2022-08-17T09:46:23.800Z,13.40
2022-08-17T09:48:58.188Z,11.60
2022-08-17T09:51:32.446Z,11.00
2022-08-17T09:54:36.950Z,14.20
2022-08-17T09:57:27.989Z,12.00
2022-08-17T10:00:02.406Z,13.25
2022-08-17T10:02:37.723Z,16.25
2022-08-17T10:05:14.703Z,15.20
2022-08-17T10:07:48.936Z,19.50
2022-08-17T10:10:26.144Z,22.75
2022-08-17T10:13:00.780Z,20.50
2022-08-17T10:15:35.490Z,20.50
2022-08-17T10:18:09.763Z,16.80
2022-08-17T10:20:44.011Z,20.00
2022-08-17T10:23:36.699Z,16.00
2022-08-17T10:26:18.029Z,17.50
2022-08-17T10:28:53.538Z,26.00
2022-08-17T10:31:36.479Z,16.80
2022-08-17T10:34:10.718Z,19.20
2022-08-17T10:36:47.224Z,21.20
2022-08-17T10:39:21.623Z,25.50
2022-08-17T10:41:56.038Z,19.25
2022-08-17T10:44:39.578Z,19.50
2022-08-17T10:47:52.743Z,20.60
2022-08-17T10:50:28.463Z,15.75
2022-08-17T10:53:08.084Z,16.50
2022-08-17T10:55:42.379Z,14.60
2022-08-17T10:58:16.705Z,21.00
2022-08-17T11:00:51.805Z,20.20
2022-08-17T11:03:28.506Z,18.00
2022-08-17T11:06:04.320Z,17.00
2022-08-17T11:08:40.115Z,20.40
2022-08-17T11:11:25.533Z,20.00
2022-08-17T11:14:00.419Z,23.00
2022-08-17T11:16:39.183Z,19.25
2022-08-17T11:19:13.605Z,24.75
2022-08-17T11:21:51.342Z,18.25
2022-08-17T11:24:25.565Z,17.50
2022-08-17T11:27:00.108Z,21.20
2022-08-17T11:29:37.398Z,19.40
2022-08-17T11:32:14.328Z,19.75
2022-08-17T11:34:50.776Z,20.00
2022-08-17T11:37:26.614Z,25.00
2022-08-17T11:40:07.424Z,20.40
2022-08-17T11:42:44.602Z,21.00
2022-08-17T11:45:31.821Z,24.50
2022-08-17T11:48:28.135Z,24.50
2022-08-17T11:51:21.576Z,25.00
2022-08-17T11:54:14.709Z,18.50
2022-08-17T11:56:50.263Z,24.75
2022-08-17T11:59:25.385Z,19.00
2022-08-17T12:01:59.799Z,21.25
2022-08-17T12:04:34.189Z,23.00
2022-08-17T12:07:09.319Z,25.20
2022-08-17T12:09:45.524Z,26.20
2022-08-17T12:12:19.647Z,30.60
2022-08-17T12:15:11.891Z,31.20
2022-08-17T12:17:47.487Z,28.25
2022-08-17T12:20:24.371Z,26.40
2022-08-17T12:23:01.807Z,26.00
2022-08-17T12:25:36.225Z,24.00
2022-08-17T12:28:31.935Z,26.40
2022-08-17T12:31:05.947Z,29.00
2022-08-17T12:33:40.979Z,29.00
2022-08-17T12:36:16.143Z,28.40
2022-08-17T12:38:50.395Z,27.00
2022-08-17T12:41:31.740Z,34.20
2022-08-17T12:44:06.341Z,29.20
2022-08-17T12:46:40.528Z,29.50
2022-08-17T12:49:16.128Z,30.40
2022-08-17T12:51:50.390Z,29.00
2022-08-17T12:54:24.837Z,30.40
2022-08-17T12:56:59.566Z,27.00
2022-08-17T12:59:34.156Z,32.00
2022-08-17T13:02:08.686Z,30.00
2022-08-17T13:04:44.627Z,29.50
2022-08-17T13:07:18.949Z,25.80
2022-08-17T13:09:54.757Z,25.60
2022-08-17T13:12:29.071Z,21.75
2022-08-17T13:15:03.386Z,19.40
2022-08-17T13:17:37.693Z,15.50
2022-08-17T13:20:11.989Z,12.60
2022-08-17T13:22:46.472Z,16.00
2022-08-17T13:25:20.890Z,11.25
2022-08-17T13:28:18.133Z,9.00
2022-08-17T13:31:04.050Z,8.00
2022-08-17T13:33:43.354Z,9.00
2022-08-17T13:36:20.438Z,10.00
2022-08-17T13:39:03.369Z,10.00
2022-08-17T13:41:38.293Z,9.00
2022-08-17T13:44:13.368Z,8.50
2022-08-17T13:46:50.803Z,9.00
2022-08-17T13:49:41.835Z,8.00
2022-08-17T13:52:25.639Z,9.80
2022-08-17T13:55:00.877Z,10.80
2022-08-17T13:57:35.078Z,9.60
2022-08-17T14:00:12.209Z,9.00
2022-08-17T14:02:46.556Z,7.25
2022-08-17T14:05:20.990Z,10.40
2022-08-17T14:07:55.596Z,10.75
2022-08-17T14:10:29.878Z,9.25
2022-08-17T14:13:05.111Z,11.60
2022-08-17T14:15:54.881Z,8.00
2022-08-17T14:18:55.350Z,10.00
2022-08-17T14:21:31.454Z,11.00
2022-08-17T14:24:05.591Z,9.25
2022-08-17T14:26:40.217Z,8.00
2022-08-17T14:29:15.495Z,11.00
2022-08-17T14:31:54.122Z,12.20
2022-08-17T14:34:28.895Z,11.00
2022-08-17T14:37:03.322Z,11.00
2022-08-17T14:39:38.456Z,10.00
2022-08-17T14:42:14.466Z,10.40
2022-08-17T14:44:51.726Z,11.00
2022-08-17T14:47:27.481Z,9.00
2022-08-17T14:50:02.901Z,12.00
2022-08-17T14:52:36.972Z,9.50
2022-08-17T14:55:11.337Z,11.00
2022-08-17T14:57:47.291Z,9.00
2022-08-17T15:00:21.493Z,10.00
2022-08-17T15:02:56.733Z,10.00
2022-08-17T15:05:34.287Z,16.00
2022-08-17T15:08:08.928Z,25.75
2022-08-17T15:10:43.135Z,27.00
2022-08-17T15:13:17.359Z,25.00
2022-08-17T15:15:52.054Z,24.80
2022-08-17T15:18:26.196Z,25.00
2022-08-17T15:21:01.329Z,24.00
2022-08-17T15:23:36.566Z,28.00
2022-08-17T15:26:11.813Z,30.50
2022-08-17T15:28:52.205Z,28.20
2022-08-17T15:31:31.816Z,26.50
2022-08-17T15:34:08.007Z,26.80
2022-08-17T15:36:47.924Z,27.50
2022-08-17T15:39:24.331Z,30.00
2022-08-17T15:41:58.927Z,32.00
2022-08-17T15:44:35.079Z,31.20
2022-08-17T15:47:11.765Z,30.00
2022-08-17T15:49:47.585Z,32.00
2022-08-17T15:52:22.524Z,32.00
2022-08-17T15:54:56.567Z,26.50
2022-08-17T15:57:31.538Z,28.00
2022-08-17T16:00:06.555Z,30.00
2022-08-17T16:03:32.004Z,30.00
